»·PEaware :: N525SA KAST-KOTH

N525SA :: KAST-KOTH

FLIGHT INFORMATION

Flight Status: Arrived
Operator: Privately registered:
United States
More flights under this callsign
Pilot: Utku A. (15598)
Aircraft: SOCATA TBM-900
(TBM9)
More flights by this aircraft type
Origin: KAST Astoria Regl
United States
Destination: KOTH North Bend Mun
United States
More flights between these airports :: More routes between these airports
Route: +AST V27 CUTEL T257 JANAS V27 OTH
File this flight plan on PilotEdge
Remarks:
Altitude:
(Current/Filed)
16,000ft
Speed:
(Current/Filed)
250kts
Departed: 26-Oct-18 04:23 PM
Arrived: 26-Oct-18 06:18 PM
Distance/Time
Traveled:
165nm/1:55
Distance/Time
To Go:
Arrived

Flight Plot

Page will automatically refresh every two minutes.

Flight plan parsing failed; only flown route is shown


Map Options




Map Legend


Flown Route
Filed Route
Departure Airport
Arrival Airport
Navaid (VOR, NDB)
Fix

Horizontal Profiles

Position Reports

Time Latitude Longitude Heading Altitude Ground
Speed
26-Oct-18 16:03 46.155090 -123.880127 239 19ft 0kts
26-Oct-18 16:04 46.155090 -123.880127 239 19ft 0kts
26-Oct-18 16:05 46.155090 -123.880127 239 19ft 0kts
26-Oct-18 16:06 46.155090 -123.880127 239 19ft 0kts
26-Oct-18 16:07 46.155090 -123.880127 239 19ft 0kts
26-Oct-18 16:08 46.155090 -123.880127 239 19ft 0kts
26-Oct-18 16:09 46.155090 -123.880127 239 19ft 0kts
26-Oct-18 16:10 46.155090 -123.880127 239 19ft 0kts
26-Oct-18 16:11 46.155090 -123.880127 239 19ft 0kts
26-Oct-18 16:12 46.155089 -123.880131 239 19ft 0kts
26-Oct-18 16:13 46.155089 -123.880131 239 19ft 0kts
26-Oct-18 16:14 46.155089 -123.880131 239 19ft 0kts
26-Oct-18 16:15 46.155076 -123.880162 239 19ft 0kts
26-Oct-18 16:16 46.153583 -123.878747 117 19ft 9kts
26-Oct-18 16:17 46.150821 -123.876254 152 19ft 10kts
26-Oct-18 16:18 46.150471 -123.875912 131 18ft 0kts
26-Oct-18 16:19 46.150471 -123.875912 131 18ft 0kts
26-Oct-18 16:20 46.150471 -123.875912 131 18ft 0kts
26-Oct-18 16:21 46.150471 -123.875912 131 18ft 0kts
26-Oct-18 16:22 46.150471 -123.875912 131 18ft 0kts
26-Oct-18 16:23 46.150456 -123.875885 126 18ft 1kts
26-Oct-18 16:24 46.150885 -123.874930 338 16ft 0kts
26-Oct-18 16:25 46.155857 -123.878478 333 25ft 110kts
26-Oct-18 16:26 46.150241 -123.902063 152 2138ft 124kts
26-Oct-18 16:27 46.116297 -123.885068 185 4180ft 144kts
26-Oct-18 16:28 46.076676 -123.882650 166 6231ft 149kts
26-Oct-18 16:29 46.037928 -123.860471 165 8144ft 155kts
26-Oct-18 16:30 45.998540 -123.833156 165 10346ft 163kts
26-Oct-18 16:31 45.957524 -123.808016 202 12275ft 147kts
26-Oct-18 16:32 45.917274 -123.816915 202 14134ft 149kts
26-Oct-18 16:33 45.876788 -123.825445 202 15872ft 152kts
26-Oct-18 16:34 45.825897 -123.836290 199 16026ft 212kts
26-Oct-18 16:35 45.764640 -123.848853 198 16022ft 229kts
26-Oct-18 16:36 45.701582 -123.861853 198 15994ft 234kts
26-Oct-18 16:37 45.637359 -123.875105 198 15993ft 233kts
26-Oct-18 16:56 46.155087 -123.880139 244 19ft 0kts
26-Oct-18 16:57 46.155087 -123.880139 244 19ft 0kts
26-Oct-18 16:58 46.155087 -123.880139 244 19ft 0kts
26-Oct-18 17:03 46.155087 -123.880142 244 19ft 0kts
26-Oct-18 17:04 46.155087 -123.880142 244 19ft 0kts
26-Oct-18 17:05 46.155087 -123.880142 244 19ft 0kts
26-Oct-18 17:06 46.155087 -123.880142 244 19ft 0kts
26-Oct-18 17:07 46.155086 -123.880142 244 19ft 0kts
26-Oct-18 17:08 46.155086 -123.880143 244 19ft 0kts
26-Oct-18 17:09 46.154969 -123.880294 197 19ft 5kts
26-Oct-18 17:10 46.153809 -123.879236 128 19ft 0kts
26-Oct-18 17:11 46.153809 -123.879236 128 19ft 0kts
26-Oct-18 17:12 46.153809 -123.879236 128 19ft 0kts
26-Oct-18 17:13 46.153809 -123.879236 128 19ft 0kts
26-Oct-18 17:14 46.153404 -123.878115 139 19ft 8kts
26-Oct-18 17:15 46.150769 -123.876211 152 19ft 6kts
26-Oct-18 17:16 46.150520 -123.876013 135 18ft 0kts
26-Oct-18 17:17 46.150520 -123.876013 135 18ft 0kts
26-Oct-18 17:18 46.150520 -123.876013 135 18ft 0kts
26-Oct-18 17:19 46.150520 -123.876013 135 18ft 0kts
26-Oct-18 17:20 46.151103 -123.875069 331 16ft 11kts
26-Oct-18 17:21 46.170144 -123.893492 272 1356ft 120kts
26-Oct-18 17:22 46.140377 -123.889036 161 3816ft 131kts
26-Oct-18 17:23 46.106672 -123.886742 191 6360ft 124kts
26-Oct-18 17:24 46.073090 -123.890634 195 8991ft 123kts
26-Oct-18 17:25 46.039562 -123.894554 197 11363ft 122kts
26-Oct-18 17:26 46.006210 -123.898449 199 13483ft 123kts
26-Oct-18 17:27 45.972366 -123.902385 201 15400ft 124kts
26-Oct-18 17:28 45.931534 -123.907321 196 16015ft 185kts
26-Oct-18 17:29 45.878551 -123.913339 195 16005ft 223kts
26-Oct-18 17:30 45.809853 -123.921229 194 16005ft 244kts
26-Oct-18 17:31 45.743066 -123.928883 194 16502ft 233kts
26-Oct-18 17:32 45.680376 -123.936112 196 17482ft 220kts
26-Oct-18 17:33 45.619681 -123.943154 195 18016ft 230kts
26-Oct-18 17:34 45.554036 -123.950648 195 18011ft 242kts
26-Oct-18 17:35 45.486455 -123.958347 195 18009ft 245kts
26-Oct-18 17:36 45.418546 -123.966078 195 18008ft 246kts
26-Oct-18 17:37 45.350400 -123.973823 195 18008ft 246kts
26-Oct-18 17:38 45.282381 -123.981533 195 18007ft 246kts
26-Oct-18 17:39 45.214616 -123.989199 195 18006ft 246kts
26-Oct-18 17:40 45.146537 -123.996881 195 18006ft 246kts
26-Oct-18 17:41 45.078463 -124.004590 194 18005ft 246kts
26-Oct-18 17:42 45.010408 -124.012244 192 18005ft 246kts
26-Oct-18 17:43 44.942212 -124.019864 191 18006ft 247kts
26-Oct-18 17:44 44.874691 -124.027374 191 18024ft 247kts
26-Oct-18 17:45 44.806279 -124.034996 191 18035ft 248kts
26-Oct-18 17:46 44.738141 -124.042569 191 18037ft 248kts
26-Oct-18 17:47 44.666820 -124.050520 191 17235ft 267kts
26-Oct-18 17:48 44.592026 -124.058775 190 16254ft 273kts
26-Oct-18 17:49 44.515971 -124.066233 189 15256ft 273kts
26-Oct-18 17:50 44.441043 -124.073326 189 14254ft 270kts
26-Oct-18 17:51 44.364770 -124.080544 188 12370ft 278kts
26-Oct-18 17:52 44.286774 -124.087881 187 10364ft 289kts
26-Oct-18 17:53 44.209428 -124.095087 187 10030ft 267kts
26-Oct-18 17:54 44.140396 -124.101517 188 10025ft 232kts
26-Oct-18 17:55 44.074075 -124.107770 188 10037ft 243kts
26-Oct-18 17:56 44.006373 -124.114077 188 10035ft 244kts
26-Oct-18 17:57 43.938577 -124.120379 188 9997ft 245kts
26-Oct-18 17:58 43.871850 -124.126575 188 9999ft 252kts
26-Oct-18 17:59 43.802622 -124.132975 188 9989ft 252kts
26-Oct-18 18:00 43.733482 -124.139359 188 9980ft 250kts
26-Oct-18 18:01 43.664420 -124.145718 188 9971ft 248kts
26-Oct-18 18:02 43.599978 -124.151616 188 8871ft 217kts
26-Oct-18 18:03 43.541942 -124.156967 188 7638ft 205kts
26-Oct-18 18:04 43.494707 -124.161299 187 6628ft 204kts
26-Oct-18 18:05 43.440943 -124.166196 187 5386ft 183kts
26-Oct-18 18:06 43.410540 -124.206234 256 4820ft 191kts
26-Oct-18 18:07 43.399130 -124.278892 259 3833ft 185kts
26-Oct-18 18:08 43.381286 -124.342793 241 2964ft 175kts
26-Oct-18 18:09 43.357481 -124.394517 218 2962ft 151kts
26-Oct-18 18:10 43.319586 -124.414992 198 2970ft 145kts
26-Oct-18 18:11 43.280379 -124.430386 198 2972ft 147kts
26-Oct-18 18:12 43.253314 -124.455565 302 2547ft 159kts
26-Oct-18 18:13 43.295188 -124.453274 16 1975ft 160kts
26-Oct-18 18:14 43.333320 -124.437234 16 1965ft 136kts
26-Oct-18 18:15 43.356741 -124.401051 59 1966ft 129kts
26-Oct-18 18:16 43.373648 -124.360173 59 1644ft 106kts
26-Oct-18 18:17 43.385252 -124.332085 59 1186ft 95kts
26-Oct-18 18:18 43.400891 -124.294138 59 608ft 104kts
26-Oct-18 18:19 43.411853 -124.267502 59 175ft 94kts
26-Oct-18 18:20 43.417669 -124.251168 149 23ft 3kts
26-Oct-18 18:21 43.418028 -124.249512 64 24ft 4kts
26-Oct-18 18:22 43.418335 -124.246597 206 19ft 6kts
26-Oct-18 18:23 43.417639 -124.247059 151 22ft 0kts
26-Oct-18 18:24 43.417639 -124.247059 151 22ft 0kts
26-Oct-18 18:25 43.417639 -124.247059 151 22ft 0kts
26-Oct-18 18:26 43.417639 -124.247059 151 22ft 0kts
26-Oct-18 18:27 43.417639 -124.247059 151 22ft 0kts
26-Oct-18 18:28 43.417639 -124.247059 151 22ft 0kts
26-Oct-18 18:29 43.417639 -124.247059 151 22ft 0kts
26-Oct-18 18:30 43.417639 -124.247059 151 22ft 0kts
26-Oct-18 18:31 43.417639 -124.247059 151 22ft 0kts
26-Oct-18 18:32 43.417639 -124.247059 151 22ft 0kts
26-Oct-18 18:33 43.417639 -124.247059 151 22ft 0kts
26-Oct-18 18:34 43.417639 -124.247059 151 22ft 0kts
26-Oct-18 18:35 43.417639 -124.247059 151 22ft 0kts

Navigation Log

Ident Type
Flight plan parsing failed, navigation log unavailable